Dades meteomassalio
Diari Summary for Agost 8, 2017 Units:  Metric    English   Both
« Previous Day
Next Day »
Diari Semanal Mensual Anual Personalitzat
  Maxima: Minima: Mijana:
Temperatura: 31.1 °C 19.3 °C 24.3 °C
Rosada: 21.2 °C 6.3 °C 12.2 °C
Humitat: 78 % 28 % 49 %
Velocitat del vent: 45.1 km/h 0.0 km/h 25.6 km/h
Racha vent: 45.1 km/h - -
Vent:- - WNW
Pressio: 1016.8 hPa 1006.3 hPa -
Pluja: 0.0 mm    
Historical Graphs
 
 
Tabular Data for Agost 8, 2017
Time Temperature Dew Point Pressure Wind Wind Speed Wind Gust Humidity Rainfall Rate (Hourly) solar Conditions
00:00 29.4 °C 18.5 °C 1006.7 hPa NNE 13.0 km/h 13.0 km/h 52 % 0.0 mm 0.0 W/m2 CLR
00:02 29.3 °C 18.4 °C 1006.7 hPa NE 13.0 km/h 13.0 km/h 52 % 0.0 mm 0.0 W/m2 CLR
00:07 29.0 °C 18.2 °C 1006.7 hPa Calm     52 % 0.0 mm 0.0 W/m2 CLR
00:12 28.7 °C 17.3 °C 1006.7 hPa Calm     50 % 0.0 mm 0.0 W/m2 CLR
00:17 28.9 °C 17.1 °C 1006.7 hPa Calm     49 % 0.0 mm 0.0 W/m2 CLR
00:22 29.4 °C 17.2 °C 1006.7 hPa Calm     48 % 0.0 mm 0.0 W/m2 CLR
00:27 29.8 °C 17.3 °C 1006.7 hPa SW 3.7 km/h 3.7 km/h 47 % 0.0 mm 0.0 W/m2 CLR
00:32 30.2 °C 17.3 °C 1006.7 hPa SW 16.7 km/h 16.7 km/h 46 % 0.0 mm 0.0 W/m2 CLR
00:37 30.6 °C 17.3 °C 1006.7 hPa South 7.4 km/h 7.4 km/h 45 % 0.0 mm 0.0 W/m2 CLR
00:42 30.9 °C 17.2 °C 1006.7 hPa SW 14.5 km/h 14.5 km/h 44 % 0.0 mm 0.0 W/m2 CLR
00:47 31.1 °C 17.4 °C 1006.7 hPa South 5.6 km/h 5.6 km/h 44 % 0.0 mm 0.0 W/m2 CLR
00:52 31.0 °C 17.3 °C 1006.7 hPa Calm     44 % 0.0 mm 0.0 W/m2 CLR
00:57 31.0 °C 17.3 °C 1006.7 hPa SW 7.4 km/h 7.4 km/h 44 % 0.0 mm 0.0 W/m2 CLR
01:02 30.9 °C 17.3 °C 1006.7 hPa Calm     44 % 0.0 mm 0.0 W/m2 CLR
01:07 30.9 °C 17.2 °C 1006.7 hPa Calm     44 % 0.0 mm 0.0 W/m2 CLR
01:12 30.8 °C 16.8 °C 1006.7 hPa Calm     43 % 0.0 mm 0.0 W/m2 CLR
01:17 30.7 °C 16.7 °C 1006.7 hPa Calm     43 % 0.0 mm 0.0 W/m2 CLR
01:22 30.4 °C 17.2 °C 1006.7 hPa Calm     45 % 0.0 mm 0.0 W/m2 CLR
01:27 30.1 °C 17.2 °C 1006.3 hPa NE 13.0 km/h 13.0 km/h 46 % 0.0 mm 0.0 W/m2 CLR
01:32 28.9 °C 18.4 °C 1006.3 hPa NE 13.0 km/h 13.0 km/h 53 % 0.0 mm 0.0 W/m2 CLR
01:37 27.9 °C 18.6 °C 1006.7 hPa NNE 14.8 km/h 14.8 km/h 57 % 0.0 mm 0.0 W/m2 CLR
01:42 27.4 °C 18.7 °C 1006.7 hPa North 7.4 km/h 7.4 km/h 59 % 0.0 mm 0.0 W/m2 CLR
01:47 27.3 °C 18.6 °C 1006.7 hPa NNE 11.1 km/h 11.1 km/h 59 % 0.0 mm 0.0 W/m2 CLR
01:52 27.4 °C 18.4 °C 1006.7 hPa Calm     58 % 0.0 mm 0.0 W/m2 CLR
01:57 27.2 °C 18.8 °C 1006.7 hPa Calm     60 % 0.0 mm 0.0 W/m2 CLR
02:02 27.1 °C 18.7 °C 1006.7 hPa Calm     60 % 0.0 mm 0.0 W/m2 CLR
02:07 26.9 °C 19.2 °C 1006.7 hPa Calm     63 % 0.0 mm 0.0 W/m2 CLR
02:12 26.5 °C 19.4 °C 1007.0 hPa Calm     65 % 0.0 mm 0.0 W/m2 CLR
02:17 26.2 °C 19.4 °C 1007.3 hPa NNE 9.3 km/h 9.3 km/h 66 % 0.0 mm 0.0 W/m2 CLR
02:22 26.2 °C 19.3 °C 1007.3 hPa NE 7.4 km/h 7.4 km/h 66 % 0.0 mm 0.0 W/m2 CLR
02:27 26.3 °C 19.7 °C 1007.7 hPa Calm     67 % 0.0 mm 0.0 W/m2 CLR
02:32 26.5 °C 19.6 °C 1007.7 hPa NW 11.1 km/h 11.1 km/h 66 % 0.0 mm 0.0 W/m2 CLR
02:37 26.8 °C 20.4 °C 1007.7 hPa NW 18.5 km/h 18.5 km/h 68 % 0.0 mm 0.0 W/m2 CLR
02:42 26.7 °C 20.5 °C 1007.7 hPa NW 25.9 km/h 25.9 km/h 69 % 0.0 mm 0.0 W/m2 CLR
02:47 26.5 °C 20.6 °C 1007.7 hPa NW 22.2 km/h 22.2 km/h 70 % 0.0 mm 0.0 W/m2 CLR
02:52 26.3 °C 20.8 °C 1008.0 hPa NW 31.5 km/h 31.5 km/h 72 % 0.0 mm 0.0 W/m2 CLR
02:57 25.7 °C 21.1 °C 1008.0 hPa WNW 31.5 km/h 31.5 km/h 76 % 0.0 mm 0.0 W/m2 CLR
03:02 25.3 °C 21.2 °C 1008.0 hPa NW 31.5 km/h 31.5 km/h 78 % 0.0 mm 0.0 W/m2 CLR
03:07 24.8 °C 20.1 °C 1008.4 hPa NW 38.6 km/h 38.6 km/h 75 % 0.0 mm 0.0 W/m2 CLR
03:12 24.2 °C 19.4 °C 1008.4 hPa NW 25.9 km/h 25.9 km/h 75 % 0.0 mm 0.0 W/m2 CLR
03:17 23.8 °C 18.7 °C 1008.7 hPa WNW 35.2 km/h 35.2 km/h 73 % 0.0 mm 0.0 W/m2 CLR
03:22 23.5 °C 18.4 °C 1008.7 hPa WNW 20.9 km/h 20.9 km/h 73 % 0.0 mm 0.0 W/m2 CLR
03:27 23.4 °C 18.3 °C 1009.0 hPa WNW 25.9 km/h 25.9 km/h 73 % 0.0 mm 0.0 W/m2 CLR
03:32 23.3 °C 18.0 °C 1009.0 hPa West 27.4 km/h 27.4 km/h 72 % 0.0 mm 0.0 W/m2 CLR
03:37 23.3 °C 17.9 °C 1009.0 hPa NNW 17.7 km/h 17.7 km/h 72 % 0.0 mm 0.0 W/m2 CLR
03:42 23.2 °C 17.7 °C 1009.4 hPa WNW 16.7 km/h 16.7 km/h 71 % 0.0 mm 0.0 W/m2 CLR
03:47 23.1 °C 17.3 °C 1009.4 hPa WNW 18.5 km/h 18.5 km/h 70 % 0.0 mm 0.0 W/m2 CLR
03:52 23.0 °C 17.2 °C 1009.4 hPa NNW 14.5 km/h 14.5 km/h 70 % 0.0 mm 0.0 W/m2 CLR
03:57 22.9 °C 17.2 °C 1009.7 hPa WNW 25.9 km/h 25.9 km/h 70 % 0.0 mm 0.0 W/m2 CLR
04:02 22.9 °C 17.1 °C 1009.7 hPa WNW 1.9 km/h   70 % 0.0 mm 0.0 W/m2 CLR
04:07 22.9 °C 17.1 °C 1010.0 hPa Calm     70 % 0.0 mm 0.0 W/m2 CLR
04:12 22.8 °C 17.1 °C 1010.0 hPa WNW 11.1 km/h 11.1 km/h 70 % 0.0 mm 0.0 W/m2 CLR
04:17 22.7 °C 16.7 °C 1010.0 hPa NW 20.4 km/h 20.4 km/h 69 % 0.0 mm 0.0 W/m2 CLR
04:22 22.6 °C 16.6 °C 1010.0 hPa West 18.5 km/h 18.5 km/h 69 % 0.0 mm 0.0 W/m2 CLR
04:27 22.3 °C 16.1 °C 1010.0 hPa WNW 31.5 km/h 31.5 km/h 68 % 0.0 mm 0.0 W/m2 CLR
04:32 22.2 °C 16.2 °C 1010.0 hPa WNW 18.5 km/h 18.5 km/h 69 % 0.0 mm 0.0 W/m2 CLR
04:37 22.1 °C 15.9 °C 1010.4 hPa West 24.1 km/h 24.1 km/h 68 % 0.0 mm 0.0 W/m2 CLR
04:42 22.0 °C 15.8 °C 1010.4 hPa WNW 24.1 km/h 24.1 km/h 68 % 0.0 mm 0.0 W/m2 CLR
04:47 21.9 °C 15.7 °C 1010.4 hPa West 16.1 km/h 16.1 km/h 68 % 0.0 mm 0.0 W/m2 CLR
04:52 21.8 °C 15.7 °C 1010.4 hPa WNW 18.5 km/h 18.5 km/h 68 % 0.0 mm 0.0 W/m2 CLR
04:57 21.7 °C 15.5 °C 1010.4 hPa WNW 31.5 km/h 31.5 km/h 68 % 0.0 mm 0.0 W/m2 CLR
05:02 21.5 °C 15.3 °C 1010.7 hPa WNW 31.5 km/h 31.5 km/h 68 % 0.0 mm 0.0 W/m2 CLR
05:07 21.4 °C 15.2 °C 1010.7 hPa NW 33.3 km/h 33.3 km/h 68 % 0.0 mm 0.0 W/m2 CLR
05:19 21.1 °C 15.0 °C 1010.7 hPa West 27.8 km/h 27.8 km/h 68 % 0.0 mm 0.0 W/m2 CLR
05:22 21.1 °C 14.9 °C 1010.7 hPa WNW 27.8 km/h 27.8 km/h 68 % 0.0 mm 0.0 W/m2 CLR
05:24 21.1 °C 14.9 °C 1010.7 hPa West 27.8 km/h 27.8 km/h 68 % 0.0 mm 0.0 W/m2 CLR
05:25 21.1 °C 14.9 °C 1010.7 hPa West 18.5 km/h 18.5 km/h 68 % 0.0 mm 0.0 W/m2 CLR
05:28 21.0 °C 14.9 °C 1010.7 hPa West 33.3 km/h 33.3 km/h 68 % 0.0 mm 0.0 W/m2 CLR
05:30 20.9 °C 14.8 °C 1010.7 hPa West 27.8 km/h 27.8 km/h 68 % 0.0 mm 0.0 W/m2 CLR
05:32 20.8 °C 14.7 °C 1010.7 hPa West 24.1 km/h 24.1 km/h 68 % 0.0 mm 0.0 W/m2 CLR
05:37 20.7 °C 14.6 °C 1010.7 hPa NW 37.0 km/h 37.0 km/h 68 % 0.0 mm 0.0 W/m2 CLR
05:42 20.6 °C 14.5 °C 1010.7 hPa NW 25.9 km/h 25.9 km/h 68 % 0.0 mm 0.0 W/m2 CLR
05:43 20.6 °C 14.5 °C 1010.7 hPa WNW 25.9 km/h 25.9 km/h 68 % 0.0 mm 0.0 W/m2 CLR
05:48 20.5 °C 14.4 °C 1010.7 hPa West 24.1 km/h 24.1 km/h 68 % 0.0 mm 0.0 W/m2 CLR
05:53 20.4 °C 14.5 °C 1010.7 hPa West 27.8 km/h 27.8 km/h 69 % 0.0 mm 0.0 W/m2 CLR
05:58 20.3 °C 14.4 °C 1010.7 hPa West 38.9 km/h 38.9 km/h 69 % 0.0 mm 0.0 W/m2 CLR
06:03 20.2 °C 14.3 °C 1010.7 hPa WNW 40.7 km/h 40.7 km/h 69 % 0.0 mm 0.0 W/m2 CLR
06:08 20.2 °C 14.3 °C 1011.1 hPa West 22.2 km/h 22.2 km/h 69 % 0.0 mm 0.0 W/m2 CLR
06:13 20.1 °C 14.2 °C 1011.1 hPa West 27.8 km/h 27.8 km/h 69 % 0.0 mm 0.0 W/m2 CLR
06:18 20.1 °C 14.2 °C 1011.1 hPa WNW 27.8 km/h 27.8 km/h 69 % 0.0 mm 0.0 W/m2 CLR
06:23 20.0 °C 14.1 °C 1011.1 hPa West 18.5 km/h 18.5 km/h 69 % 0.0 mm 0.0 W/m2 CLR
06:28 20.0 °C 14.1 °C 1011.1 hPa WSW 24.1 km/h 24.1 km/h 69 % 0.0 mm 0.0 W/m2 CLR
06:33 19.9 °C 14.1 °C 1011.1 hPa WNW 27.8 km/h 27.8 km/h 69 % 0.0 mm 0.0 W/m2 CLR
06:38 19.9 °C 14.3 °C 1011.4 hPa WSW 25.9 km/h 25.9 km/h 70 % 0.0 mm 0.0 W/m2 CLR
06:43 19.8 °C 14.2 °C 1011.1 hPa West 22.2 km/h 22.2 km/h 70 % 0.0 mm 0.0 W/m2 CLR
06:48 19.8 °C 14.2 °C 1011.4 hPa West 20.4 km/h 20.4 km/h 70 % 0.0 mm 0.0 W/m2 CLR
06:53 19.7 °C 14.1 °C 1011.4 hPa WNW 31.5 km/h 31.5 km/h 70 % 0.0 mm 0.0 W/m2 CLR
06:58 19.7 °C 14.1 °C 1011.4 hPa West 20.4 km/h 20.4 km/h 70 % 0.0 mm 0.0 W/m2 CLR
07:03 19.7 °C 14.1 °C 1011.4 hPa West 18.5 km/h 18.5 km/h 70 % 0.0 mm 0.0 W/m2 OVC
07:08 19.6 °C 14.2 °C 1011.4 hPa West 25.9 km/h 25.9 km/h 71 % 0.0 mm 5.0 W/m2 OVC
07:13 19.6 °C 14.2 °C 1011.4 hPa West 29.6 km/h 29.6 km/h 71 % 0.0 mm 7.0 W/m2 BKN
07:18 19.6 °C 14.2 °C 1011.7 hPa WSW 27.8 km/h 27.8 km/h 71 % 0.0 mm 11.0 W/m2 BKN
07:23 19.6 °C 14.2 °C 1011.7 hPa WNW 25.9 km/h 25.9 km/h 71 % 0.0 mm 16.0 W/m2 BKN
07:28 19.5 °C 14.1 °C 1011.7 hPa West 33.3 km/h 33.3 km/h 71 % 0.0 mm 19.0 W/m2 BKN
07:33 19.4 °C 14.1 °C 1011.7 hPa WNW 22.2 km/h 22.2 km/h 71 % 0.0 mm 23.0 W/m2 BKN
07:38 19.4 °C 14.0 °C 1011.7 hPa WNW 22.2 km/h 22.2 km/h 71 % 0.0 mm 26.0 W/m2 BKN
07:43 19.3 °C 14.2 °C 1011.7 hPa WNW 33.3 km/h 33.3 km/h 72 % 0.0 mm 30.0 W/m2 BKN
07:48 19.3 °C 14.1 °C 1011.7 hPa West 33.3 km/h 33.3 km/h 72 % 0.0 mm 35.0 W/m2 BKN
07:53 19.3 °C 13.9 °C 1012.1 hPa WNW 22.2 km/h 22.2 km/h 71 % 0.0 mm 39.0 W/m2 BKN
07:58 19.3 °C 13.9 °C 1012.1 hPa NW 22.2 km/h 22.2 km/h 71 % 0.0 mm 74.0 W/m2 FEW
08:03 19.4 °C 14.1 °C 1012.1 hPa WNW 35.2 km/h 35.2 km/h 71 % 0.0 mm 84.0 W/m2 FEW
08:08 19.5 °C 13.9 °C 1012.1 hPa NW 31.5 km/h 31.5 km/h 70 % 0.0 mm 104.0 W/m2 CLR
08:13 19.6 °C 14.0 °C 1012.1 hPa WNW 31.5 km/h 31.5 km/h 70 % 0.0 mm 127.0 W/m2 CLR
08:18 19.7 °C 14.1 °C 1012.1 hPa WNW 25.9 km/h 25.9 km/h 70 % 0.0 mm 146.0 W/m2 CLR
08:23 19.8 °C 13.9 °C 1012.4 hPa NW 24.1 km/h 24.1 km/h 69 % 0.0 mm 171.0 W/m2 CLR
08:28 19.8 °C 13.8 °C 1012.4 hPa NW 33.8 km/h 33.8 km/h 68 % 0.0 mm 181.0 W/m2 CLR
08:33 19.8 °C 13.9 °C 1012.4 hPa NW 38.9 km/h 38.9 km/h 69 % 0.0 mm 197.0 W/m2 CLR
08:38 19.8 °C 13.7 °C 1012.4 hPa WNW 35.2 km/h 35.2 km/h 68 % 0.0 mm 214.0 W/m2 CLR
08:43 19.8 °C 13.7 °C 1012.4 hPa WNW 27.8 km/h 27.8 km/h 68 % 0.0 mm 223.0 W/m2 CLR
08:48 19.8 °C 13.8 °C 1012.4 hPa WNW 35.2 km/h 35.2 km/h 68 % 0.0 mm 230.0 W/m2 CLR
08:53 19.9 °C 13.6 °C 1012.4 hPa NW 40.7 km/h 40.7 km/h 67 % 0.0 mm 250.0 W/m2 CLR
08:58 20.0 °C 13.7 °C 1012.4 hPa WNW 33.3 km/h 33.3 km/h 67 % 0.0 mm 269.0 W/m2 CLR
09:02 20.1 °C 13.8 °C 1012.4 hPa NW 38.6 km/h 38.6 km/h 67 % 0.0 mm 279.0 W/m2 CLR
09:07 20.2 °C 13.7 °C 1012.4 hPa NW 27.8 km/h 27.8 km/h 66 % 0.0 mm 299.0 W/m2 CLR
09:12 20.3 °C 13.8 °C 1012.4 hPa NW 25.9 km/h 25.9 km/h 66 % 0.0 mm 315.0 W/m2 CLR
09:17 20.4 °C 13.7 °C 1012.8 hPa WNW 38.9 km/h 38.9 km/h 65 % 0.0 mm 330.0 W/m2 CLR
09:22 20.4 °C 13.6 °C 1012.8 hPa NW 38.9 km/h 38.9 km/h 65 % 0.0 mm 345.0 W/m2 CLR
09:27 20.4 °C 13.3 °C 1012.8 hPa NW 42.6 km/h 42.6 km/h 64 % 0.0 mm 362.0 W/m2 CLR
09:32 20.4 °C 13.3 °C 1012.8 hPa WNW 40.7 km/h 40.7 km/h 64 % 0.0 mm 378.0 W/m2 CLR
09:37 20.6 °C 13.5 °C 1012.4 hPa NW 35.2 km/h 35.2 km/h 64 % 0.0 mm 346.0 W/m2 CLR
09:42 20.8 °C 13.5 °C 1012.4 hPa WNW 40.7 km/h 40.7 km/h 63 % 0.0 mm 144.0 W/m2 CLR
09:47 20.9 °C 13.6 °C 1012.8 hPa West 38.9 km/h 38.9 km/h 63 % 0.0 mm 403.0 W/m2 CLR
09:52 20.8 °C 13.3 °C 1012.8 hPa NW 40.7 km/h 40.7 km/h 62 % 0.0 mm 436.0 W/m2 CLR
09:57 21.2 °C 13.6 °C 1012.8 hPa WNW 31.5 km/h 31.5 km/h 62 % 0.0 mm 454.0 W/m2 CLR
10:02 21.3 °C 13.4 °C 1012.8 hPa West 40.7 km/h 40.7 km/h 61 % 0.0 mm 466.0 W/m2 CLR
10:07 21.3 °C 13.4 °C 1012.8 hPa West 25.9 km/h 25.9 km/h 61 % 0.0 mm 478.0 W/m2 CLR
10:12 21.7 °C 13.6 °C 1012.8 hPa NNW 35.2 km/h 35.2 km/h 60 % 0.0 mm 504.0 W/m2 CLR
10:17 21.5 °C 13.4 °C 1012.8 hPa NW 32.2 km/h 32.2 km/h 60 % 0.0 mm 519.0 W/m2 CLR
10:22 21.7 °C 13.3 °C 1013.1 hPa WNW 29.6 km/h 29.6 km/h 59 % 0.0 mm 520.0 W/m2 CLR
10:27 21.7 °C 13.3 °C 1013.1 hPa NW 38.9 km/h 38.9 km/h 59 % 0.0 mm 541.0 W/m2 CLR
10:32 21.9 °C 13.3 °C 1012.8 hPa WNW 40.2 km/h 40.2 km/h 58 % 0.0 mm 561.0 W/m2 CLR
10:37 22.0 °C 13.1 °C 1013.1 hPa WNW 42.6 km/h 42.6 km/h 57 % 0.0 mm 577.0 W/m2 CLR
10:42 22.2 °C 13.0 °C 1013.1 hPa NNW 29.6 km/h 29.6 km/h 56 % 0.0 mm 587.0 W/m2 CLR
10:47 22.4 °C 13.2 °C 1013.1 hPa NNW 33.3 km/h 33.3 km/h 56 % 0.0 mm 596.0 W/m2 CLR
10:52 22.5 °C 13.0 °C 1013.1 hPa NW 33.8 km/h 33.8 km/h 55 % 0.0 mm 619.0 W/m2 CLR
10:57 22.4 °C 12.9 °C 1013.1 hPa West 31.5 km/h 31.5 km/h 55 % 0.0 mm 629.0 W/m2 CLR
11:02 22.5 °C 13.0 °C 1013.1 hPa WNW 31.5 km/h 31.5 km/h 55 % 0.0 mm 647.0 W/m2 CLR
11:07 22.7 °C 12.9 °C 1013.1 hPa WNW 20.9 km/h 20.9 km/h 54 % 0.0 mm 654.0 W/m2 CLR
11:12 23.0 °C 12.9 °C 1013.1 hPa West 27.8 km/h 27.8 km/h 53 % 0.0 mm 666.0 W/m2 CLR
11:17 23.1 °C 13.0 °C 1013.1 hPa WNW 33.3 km/h 33.3 km/h 53 % 0.0 mm 680.0 W/m2 CLR
11:22 23.6 °C 13.1 °C 1013.1 hPa NW 31.5 km/h 31.5 km/h 52 % 0.0 mm 693.0 W/m2 CLR
11:27 23.5 °C 12.8 °C 1013.1 hPa NW 29.6 km/h 29.6 km/h 51 % 0.0 mm 705.0 W/m2 CLR
11:32 23.7 °C 13.0 °C 1013.4 hPa WNW 45.1 km/h 45.1 km/h 51 % 0.0 mm 715.0 W/m2 CLR
11:37 23.8 °C 12.8 °C 1013.4 hPa WNW 29.6 km/h 29.6 km/h 50 % 0.0 mm 726.0 W/m2 CLR
11:42 23.9 °C 12.5 °C 1013.4 hPa NW 31.5 km/h 31.5 km/h 49 % 0.0 mm 733.0 W/m2 CLR
11:47 24.1 °C 13.0 °C 1013.4 hPa NW 25.9 km/h 25.9 km/h 50 % 0.0 mm 742.0 W/m2 CLR
11:52 24.0 °C 12.3 °C 1013.4 hPa NNW 29.6 km/h 29.6 km/h 48 % 0.0 mm 758.0 W/m2 CLR
11:57 24.0 °C 12.6 °C 1013.4 hPa WNW 35.4 km/h 35.4 km/h 49 % 0.0 mm 766.0 W/m2 CLR
12:02 23.9 °C 12.5 °C 1013.4 hPa WNW 29.0 km/h 29.0 km/h 49 % 0.0 mm 777.0 W/m2 CLR
12:07 24.2 °C 11.8 °C 1013.4 hPa WNW 31.5 km/h 31.5 km/h 46 % 0.0 mm 786.0 W/m2 CLR
12:12 24.2 °C 12.2 °C 1013.4 hPa NW 25.9 km/h 25.9 km/h 47 % 0.0 mm 791.0 W/m2 CLR
12:17 24.3 °C 11.9 °C 1013.4 hPa NW 31.5 km/h 31.5 km/h 46 % 0.0 mm 800.0 W/m2 CLR
12:22 24.4 °C 11.7 °C 1013.4 hPa NNW 40.7 km/h 40.7 km/h 45 % 0.0 mm 807.0 W/m2 CLR
12:27 24.5 °C 11.8 °C 1013.4 hPa NNW 35.2 km/h 35.2 km/h 45 % 0.0 mm 814.0 W/m2 CLR
12:32 24.7 °C 11.6 °C 1013.4 hPa WNW 31.5 km/h 31.5 km/h 44 % 0.0 mm 828.0 W/m2 CLR
12:37 24.9 °C 11.8 °C 1013.4 hPa NW 25.9 km/h 25.9 km/h 44 % 0.0 mm 833.0 W/m2 CLR
12:42 24.9 °C 11.8 °C 1013.4 hPa NW 30.6 km/h 30.6 km/h 44 % 0.0 mm 842.0 W/m2 CLR
12:47 24.9 °C 11.4 °C 1013.4 hPa WNW 31.5 km/h 31.5 km/h 43 % 0.0 mm 846.0 W/m2 CLR
12:52 25.3 °C 11.1 °C 1013.4 hPa NNW 32.2 km/h 32.2 km/h 41 % 0.0 mm 858.0 W/m2 CLR
12:57 25.1 °C 10.2 °C 1013.8 hPa NNW 35.2 km/h 35.2 km/h 39 % 0.0 mm 867.0 W/m2 CLR
13:02 25.0 °C 9.7 °C 1013.8 hPa NNW 35.2 km/h 35.2 km/h 38 % 0.0 mm 870.0 W/m2 CLR
13:07 25.2 °C 10.3 °C 1013.4 hPa NW 37.0 km/h 37.0 km/h 39 % 0.0 mm 874.0 W/m2 CLR
13:12 25.7 °C 9.9 °C 1013.4 hPa NNW 35.2 km/h 35.2 km/h 37 % 0.0 mm 877.0 W/m2 CLR
13:17 25.8 °C 10.1 °C 1013.8 hPa WSW 35.2 km/h 35.2 km/h 37 % 0.0 mm 881.0 W/m2 CLR
13:22 25.9 °C 9.3 °C 1013.4 hPa NNW 33.3 km/h 33.3 km/h 35 % 0.0 mm 884.0 W/m2 CLR
13:27 26.0 °C 9.3 °C 1013.4 hPa North 20.4 km/h 20.4 km/h 35 % 0.0 mm 891.0 W/m2 CLR
13:32 26.1 °C 8.9 °C 1013.4 hPa WNW 25.9 km/h 25.9 km/h 34 % 0.0 mm 891.0 W/m2 CLR
13:37 26.4 °C 8.9 °C 1013.4 hPa NNW 27.8 km/h 27.8 km/h 33 % 0.0 mm 896.0 W/m2 CLR
13:42 26.3 °C 8.7 °C 1013.4 hPa NW 38.9 km/h 38.9 km/h 33 % 0.0 mm 902.0 W/m2 CLR
13:47 26.4 °C 8.4 °C 1013.4 hPa North 33.3 km/h 33.3 km/h 32 % 0.0 mm 904.0 W/m2 CLR
13:52 26.6 °C 8.6 °C 1013.4 hPa NW 40.7 km/h 40.7 km/h 32 % 0.0 mm 905.0 W/m2 CLR
13:57 26.6 °C 8.6 °C 1013.1 hPa WNW 33.8 km/h 33.8 km/h 32 % 0.0 mm 907.0 W/m2 CLR
14:02 26.8 °C 8.7 °C 1013.1 hPa NW 42.6 km/h 42.6 km/h 32 % 0.0 mm 907.0 W/m2 CLR
14:07 26.9 °C 8.8 °C 1013.1 hPa NNW 31.5 km/h 31.5 km/h 32 % 0.0 mm 905.0 W/m2 CLR
14:12 26.8 °C 9.2 °C 1013.1 hPa NNW 29.6 km/h 29.6 km/h 33 % 0.0 mm 905.0 W/m2 CLR
14:17 26.9 °C 9.3 °C 1013.1 hPa NW 41.8 km/h 41.8 km/h 33 % 0.0 mm 905.0 W/m2 CLR
14:22 26.9 °C 8.8 °C 1013.1 hPa NNW 31.5 km/h 31.5 km/h 32 % 0.0 mm 907.0 W/m2 CLR
14:27 26.9 °C 8.8 °C 1013.1 hPa WNW 37.0 km/h 37.0 km/h 32 % 0.0 mm 909.0 W/m2 CLR
14:32 26.8 °C 8.7 °C 1013.1 hPa NNW 40.7 km/h 40.7 km/h 32 % 0.0 mm 904.0 W/m2 CLR
14:37 26.6 °C 8.6 °C 1013.1 hPa WNW 38.9 km/h 38.9 km/h 32 % 0.0 mm 900.0 W/m2 CLR
14:42 26.8 °C 9.2 °C 1013.1 hPa NW 31.5 km/h 31.5 km/h 33 % 0.0 mm 898.0 W/m2 CLR
14:47 27.1 °C 8.5 °C 1013.1 hPa NW 35.4 km/h 35.4 km/h 31 % 0.0 mm 900.0 W/m2 CLR
14:52 27.0 °C 8.4 °C 1013.1 hPa NW 35.2 km/h 35.2 km/h 31 % 0.0 mm 900.0 W/m2 CLR
14:57 27.0 °C 8.4 °C 1013.1 hPa NNW 27.8 km/h 27.8 km/h 31 % 0.0 mm 902.0 W/m2 CLR
15:02 27.2 °C 9.1 °C 1013.1 hPa WNW 27.8 km/h 27.8 km/h 32 % 0.0 mm 896.0 W/m2 CLR
15:07 27.5 °C 8.8 °C 1013.1 hPa NW 33.3 km/h 33.3 km/h 31 % 0.0 mm 902.0 W/m2 CLR
15:12 27.4 °C 8.8 °C 1013.1 hPa NNW 35.2 km/h 35.2 km/h 31 % 0.0 mm 914.0 W/m2 CLR
15:17 27.4 °C 9.2 °C 1013.1 hPa North 31.5 km/h 31.5 km/h 32 % 0.0 mm 928.0 W/m2 CLR
15:22 27.8 °C 9.2 °C 1013.1 hPa WNW 37.0 km/h 37.0 km/h 31 % 0.0 mm 953.0 W/m2 CLR
15:27 27.6 °C 8.9 °C 1013.1 hPa NNW 32.2 km/h 32.2 km/h 31 % 0.0 mm 791.0 W/m2 CLR
15:33 27.1 °C 9.0 °C 1013.1 hPa North 31.5 km/h 31.5 km/h 32 % 0.0 mm 714.0 W/m2 CLR
15:38 27.0 °C 8.9 °C 1013.1 hPa North 38.6 km/h 38.6 km/h 32 % 0.0 mm 724.0 W/m2 CLR
15:43 27.1 °C 8.4 °C 1013.1 hPa North 31.5 km/h 31.5 km/h 31 % 0.0 mm 838.0 W/m2 CLR
15:48 27.5 °C 8.8 °C 1013.1 hPa NNW 30.6 km/h 30.6 km/h 31 % 0.0 mm 840.0 W/m2 CLR
15:53 27.4 °C 9.2 °C 1012.8 hPa NNW 27.8 km/h 27.8 km/h 32 % 0.0 mm 828.0 W/m2 CLR
15:58 27.6 °C 8.9 °C 1013.1 hPa WNW 31.5 km/h 31.5 km/h 31 % 0.0 mm 814.0 W/m2 CLR
16:03 27.7 °C 9.5 °C 1013.1 hPa NNW 37.0 km/h 37.0 km/h 32 % 0.0 mm 803.0 W/m2 CLR
16:08 27.7 °C 9.5 °C 1013.1 hPa North 35.2 km/h 35.2 km/h 32 % 0.0 mm 796.0 W/m2 CLR
16:13 27.5 °C 9.3 °C 1013.1 hPa NW 31.5 km/h 31.5 km/h 32 % 0.0 mm 788.0 W/m2 CLR
16:18 27.5 °C 8.8 °C 1013.1 hPa NW 38.9 km/h 38.9 km/h 31 % 0.0 mm 780.0 W/m2 CLR
16:23 27.6 °C 8.9 °C 1012.8 hPa NW 31.5 km/h 31.5 km/h 31 % 0.0 mm 772.0 W/m2 CLR
16:28 27.7 °C 8.5 °C 1012.8 hPa NW 31.5 km/h 31.5 km/h 30 % 0.0 mm 761.0 W/m2 CLR
16:33 27.9 °C 9.2 °C 1013.1 hPa WNW 33.3 km/h 33.3 km/h 31 % 0.0 mm 749.0 W/m2 CLR
16:38 27.7 °C 9.1 °C 1013.1 hPa NNW 33.3 km/h 33.3 km/h 31 % 0.0 mm 738.0 W/m2 CLR
16:43 27.6 °C 8.9 °C 1013.1 hPa WNW 31.5 km/h 31.5 km/h 31 % 0.0 mm 724.0 W/m2 CLR
16:48 27.7 °C 8.6 °C 1013.1 hPa NW 29.6 km/h 29.6 km/h 30 % 0.0 mm 712.0 W/m2 CLR
16:53 27.6 °C 8.9 °C 1013.1 hPa NW 31.5 km/h 31.5 km/h 31 % 0.0 mm 700.0 W/m2 CLR
16:58 27.6 °C 8.9 °C 1013.1 hPa WNW 37.0 km/h 37.0 km/h 31 % 0.0 mm 691.0 W/m2 CLR
17:03 27.6 °C 8.4 °C 1013.1 hPa WNW 33.3 km/h 33.3 km/h 30 % 0.0 mm 677.0 W/m2 CLR
17:08 27.9 °C 8.7 °C 1013.1 hPa NW 33.8 km/h 33.8 km/h 30 % 0.0 mm 661.0 W/m2 CLR
17:13 28.0 °C 8.8 °C 1013.1 hPa NW 35.4 km/h 35.4 km/h 30 % 0.0 mm 647.0 W/m2 CLR
17:18 27.5 °C 8.8 °C 1013.4 hPa NNW 30.6 km/h 30.6 km/h 31 % 0.0 mm 633.0 W/m2 CLR
17:23 27.6 °C 8.9 °C 1013.4 hPa North 31.5 km/h 31.5 km/h 31 % 0.0 mm 619.0 W/m2 CLR
17:28 27.8 °C 9.1 °C 1013.1 hPa NNW 29.6 km/h 29.6 km/h 31 % 0.0 mm 606.0 W/m2 CLR
17:33 27.8 °C 8.6 °C 1013.1 hPa NW 40.7 km/h 40.7 km/h 30 % 0.0 mm 592.0 W/m2 CLR
17:38 27.4 °C 8.8 °C 1013.4 hPa NNW 37.0 km/h 37.0 km/h 31 % 0.0 mm 584.0 W/m2 CLR
17:43 27.6 °C 8.9 °C 1013.4 hPa NW 35.4 km/h 35.4 km/h 31 % 0.0 mm 563.0 W/m2 CLR
17:48 27.4 °C 9.3 °C 1013.4 hPa NNW 38.9 km/h 38.9 km/h 32 % 0.0 mm 545.0 W/m2 CLR
17:53 27.4 °C 8.8 °C 1013.1 hPa NNW 37.0 km/h 37.0 km/h 31 % 0.0 mm 531.0 W/m2 CLR
17:58 27.6 °C 8.9 °C 1013.1 hPa West 31.5 km/h 31.5 km/h 31 % 0.0 mm 519.0 W/m2 CLR
18:03 27.4 °C 8.8 °C 1013.4 hPa NNW 42.6 km/h 42.6 km/h 31 % 0.0 mm 497.0 W/m2 CLR
18:08 27.3 °C 8.7 °C 1013.4 hPa NW 40.7 km/h 40.7 km/h 31 % 0.0 mm 485.0 W/m2 CLR
18:13 27.3 °C 8.7 °C 1013.4 hPa WNW 31.5 km/h 31.5 km/h 31 % 0.0 mm 473.0 W/m2 CLR
18:19 27.3 °C 8.7 °C 1013.4 hPa NW 31.5 km/h 31.5 km/h 31 % 0.0 mm 457.0 W/m2 CLR
18:24 27.2 °C 8.1 °C 1013.4 hPa NW 35.2 km/h 35.2 km/h 30 % 0.0 mm 445.0 W/m2 CLR
18:29 27.3 °C 8.2 °C 1013.4 hPa WNW 32.2 km/h 32.2 km/h 30 % 0.0 mm 427.0 W/m2 CLR
18:34 27.4 °C 8.8 °C 1013.4 hPa NW 27.8 km/h 27.8 km/h 31 % 0.0 mm 408.0 W/m2 CLR
18:39 27.3 °C 8.2 °C 1013.4 hPa NNW 40.2 km/h 40.2 km/h 30 % 0.0 mm 394.0 W/m2 CLR
18:44 27.2 °C 7.6 °C 1013.4 hPa NNW 24.1 km/h 24.1 km/h 29 % 0.0 mm 376.0 W/m2 CLR
18:49 27.2 °C 8.1 °C 1013.4 hPa NW 18.5 km/h 18.5 km/h 30 % 0.0 mm 359.0 W/m2 CLR
18:54 27.3 °C 7.7 °C 1013.4 hPa NNW 30.6 km/h 30.6 km/h 29 % 0.0 mm 343.0 W/m2 CLR
18:59 26.9 °C 7.9 °C 1013.8 hPa NNW 29.6 km/h 29.6 km/h 30 % 0.0 mm 327.0 W/m2 CLR
19:04 27.0 °C 7.9 °C 1013.8 hPa NNW 22.5 km/h 22.5 km/h 30 % 0.0 mm 304.0 W/m2 CLR
19:09 26.8 °C 8.3 °C 1013.8 hPa NNW 27.8 km/h 27.8 km/h 31 % 0.0 mm 292.0 W/m2 CLR
19:14 26.7 °C 8.1 °C 1013.8 hPa North 16.7 km/h 16.7 km/h 31 % 0.0 mm 281.0 W/m2 CLR
19:19 26.9 °C 8.4 °C 1013.8 hPa NNW 14.8 km/h 14.8 km/h 31 % 0.0 mm 257.0 W/m2 CLR
19:24 27.1 °C 7.5 °C 1013.8 hPa NNW 22.2 km/h 22.2 km/h 29 % 0.0 mm 237.0 W/m2 CLR
19:29 26.8 °C 7.3 °C 1013.8 hPa NNW 22.2 km/h 22.2 km/h 29 % 0.0 mm 220.0 W/m2 CLR
19:34 26.6 °C 6.6 °C 1014.1 hPa NW 18.5 km/h 18.5 km/h 28 % 0.0 mm 192.0 W/m2 CLR
19:39 26.6 °C 6.6 °C 1014.1 hPa NW 29.6 km/h 29.6 km/h 28 % 0.0 mm 183.0 W/m2 CLR
19:44 26.5 °C 7.0 °C 1014.1 hPa NW 27.8 km/h 27.8 km/h 29 % 0.0 mm 163.0 W/m2 CLR
19:49 26.5 °C 7.0 °C 1014.1 hPa Calm     29 % 0.0 mm 148.0 W/m2 CLR
19:54 26.5 °C 7.0 °C 1014.1 hPa North 18.5 km/h 18.5 km/h 29 % 0.0 mm 134.0 W/m2 CLR
19:59 26.3 °C 6.3 °C 1014.1 hPa NW 27.8 km/h 27.8 km/h 28 % 0.0 mm 120.0 W/m2 CLR
20:04 26.2 °C 6.8 °C 1014.1 hPa NW 24.1 km/h 24.1 km/h 29 % 0.0 mm 107.0 W/m2 CLR
20:09 26.1 °C 6.6 °C 1014.1 hPa NW 16.7 km/h 16.7 km/h 29 % 0.0 mm 90.0 W/m2 CLR
20:14 25.8 °C 6.4 °C 1014.1 hPa NW 25.9 km/h 25.9 km/h 29 % 0.0 mm 74.0 W/m2 FEW
20:19 25.7 °C 6.3 °C 1014.1 hPa NW 24.1 km/h 24.1 km/h 29 % 0.0 mm 58.0 W/m2 SCT
20:24 25.4 °C 7.1 °C 1014.4 hPa NW 24.1 km/h 24.1 km/h 31 % 0.0 mm 49.0 W/m2 SCT
20:29 25.3 °C 7.0 °C 1014.1 hPa NW 18.5 km/h 18.5 km/h 31 % 0.0 mm 39.0 W/m2 BKN
20:34 25.2 °C 7.3 °C 1014.1 hPa NNW 20.4 km/h 20.4 km/h 32 % 0.0 mm 30.0 W/m2 BKN
20:39 25.1 °C 7.2 °C 1014.1 hPa NNW 19.3 km/h 19.3 km/h 32 % 0.0 mm 25.0 W/m2 BKN
20:44 24.9 °C 7.5 °C 1014.4 hPa NW 29.6 km/h 29.6 km/h 33 % 0.0 mm 19.0 W/m2 BKN
20:49 24.6 °C 7.7 °C 1014.4 hPa NW 20.4 km/h 20.4 km/h 34 % 0.0 mm 16.0 W/m2 BKN
20:54 24.4 °C 7.9 °C 1014.4 hPa NW 24.1 km/h 24.1 km/h 35 % 0.0 mm 12.0 W/m2 BKN
20:59 24.3 °C 8.2 °C 1014.4 hPa NNW 18.5 km/h 18.5 km/h 36 % 0.0 mm 11.0 W/m2 BKN
21:04 24.1 °C 8.4 °C 1014.4 hPa NW 18.5 km/h 18.5 km/h 37 % 0.0 mm 7.0 W/m2 BKN
21:09 23.9 °C 8.3 °C 1014.8 hPa WNW 18.5 km/h 18.5 km/h 37 % 0.0 mm 5.0 W/m2 OVC
21:14 23.8 °C 8.2 °C 1014.8 hPa NW 18.5 km/h 18.5 km/h 37 % 0.0 mm 0.0 W/m2 OVC
21:19 23.7 °C 8.1 °C 1014.8 hPa NW 18.5 km/h 18.5 km/h 37 % 0.0 mm 0.0 W/m2 CLR
21:24 23.6 °C 8.0 °C 1014.8 hPa NW 20.4 km/h 20.4 km/h 37 % 0.0 mm 0.0 W/m2 CLR
21:29 23.4 °C 8.3 °C 1014.8 hPa WNW 18.5 km/h 18.5 km/h 38 % 0.0 mm 0.0 W/m2 CLR
21:34 23.3 °C 8.2 °C 1015.1 hPa NW 24.1 km/h 24.1 km/h 38 % 0.0 mm 0.0 W/m2 CLR
21:39 23.2 °C 8.4 °C 1015.1 hPa NW 22.5 km/h 22.5 km/h 39 % 0.0 mm 0.0 W/m2 CLR
21:45 23.2 °C 8.4 °C 1015.1 hPa NW 20.4 km/h 20.9 km/h 39 % 0.0 mm 0.0 W/m2 CLR
21:50 23.1 °C 8.4 °C 1015.1 hPa NW 22.5 km/h 23.8 km/h 39 % 0.0 mm 0.0 W/m2 CLR
21:55 23.0 °C 8.7 °C 1015.5 hPa WNW 24.1 km/h 24.1 km/h 40 % 0.0 mm 0.0 W/m2 CLR
22:00 22.9 °C 8.6 °C 1015.5 hPa WNW 20.4 km/h 20.4 km/h 40 % 0.0 mm 0.0 W/m2 CLR
22:05 22.8 °C 8.9 °C 1015.8 hPa NW 18.5 km/h 18.5 km/h 41 % 0.0 mm 0.0 W/m2 CLR
22:10 22.7 °C 8.7 °C 1015.8 hPa WNW 14.8 km/h 14.8 km/h 41 % 0.0 mm 0.0 W/m2 CLR
22:11 22.6 °C 8.7 °C 1015.8 hPa WNW 16.7 km/h 16.7 km/h 41 % 0.0 mm 0.0 W/m2 CLR
22:16 22.5 °C 8.9 °C 1015.8 hPa NW 22.2 km/h 22.2 km/h 42 % 0.0 mm 0.0 W/m2 CLR
22:21 22.4 °C 9.2 °C 1015.8 hPa NW 22.2 km/h 22.2 km/h 43 % 0.0 mm 0.0 W/m2 CLR
22:26 22.3 °C 9.1 °C 1015.8 hPa WNW 18.5 km/h 18.5 km/h 43 % 0.0 mm 0.0 W/m2 CLR
22:31 22.2 °C 9.0 °C 1016.1 hPa West 16.7 km/h 16.7 km/h 43 % 0.0 mm 0.0 W/m2 CLR
22:36 22.1 °C 8.9 °C 1016.1 hPa West 22.2 km/h 22.2 km/h 43 % 0.0 mm 0.0 W/m2 CLR
22:41 22.1 °C 8.9 °C 1016.1 hPa West 22.2 km/h 22.2 km/h 43 % 0.0 mm 0.0 W/m2 CLR
22:46 21.9 °C 8.8 °C 1016.1 hPa WNW 16.7 km/h 16.7 km/h 43 % 0.0 mm 0.0 W/m2 CLR
22:51 21.9 °C 8.7 °C 1016.1 hPa WNW 22.2 km/h 22.2 km/h 43 % 0.0 mm 0.0 W/m2 CLR
22:56 21.9 °C 8.7 °C 1016.1 hPa WNW 22.2 km/h 22.2 km/h 43 % 0.0 mm 0.0 W/m2 CLR
23:01 21.8 °C 8.7 °C 1016.1 hPa WNW 19.3 km/h 19.3 km/h 43 % 0.0 mm 0.0 W/m2 CLR
23:06 21.7 °C 8.9 °C 1016.1 hPa WNW 24.1 km/h 24.1 km/h 44 % 0.0 mm 0.0 W/m2 CLR
23:11 21.6 °C 9.1 °C 1016.5 hPa WNW 18.5 km/h 18.5 km/h 45 % 0.0 mm 0.0 W/m2 CLR
23:16 21.4 °C 8.9 °C 1016.5 hPa West 16.7 km/h 16.7 km/h 45 % 0.0 mm 0.0 W/m2 CLR
23:21 21.3 °C 8.9 °C 1016.5 hPa West 16.7 km/h 16.7 km/h 45 % 0.0 mm 0.0 W/m2 CLR
23:26 21.2 °C 9.1 °C 1016.5 hPa West 18.5 km/h 18.5 km/h 46 % 0.0 mm 0.0 W/m2 CLR
23:31 21.2 °C 9.1 °C 1016.5 hPa West 14.8 km/h 14.8 km/h 46 % 0.0 mm 0.0 W/m2 CLR
23:36 21.1 °C 9.1 °C 1016.8 hPa West 8.0 km/h 8.0 km/h 46 % 0.0 mm 0.0 W/m2 CLR
23:41 21.0 °C 8.9 °C 1016.8 hPa WSW 13.0 km/h 13.0 km/h 46 % 0.0 mm 0.0 W/m2 CLR
23:46 20.9 °C 8.9 °C 1016.8 hPa West 14.8 km/h 14.8 km/h 46 % 0.0 mm 0.0 W/m2 CLR
23:51 20.9 °C 8.8 °C 1016.8 hPa WNW 18.5 km/h 18.5 km/h 46 % 0.0 mm 0.0 W/m2 CLR
23:56 20.9 °C 8.8 °C 1016.8 hPa WNW 13.0 km/h 13.0 km/h 46 % 0.0 mm 0.0 W/m2 CLR
Lo Temps de Massalio
Compliments of Weather Underground - 1.25 mb